sensor_id;sensor_type;location;lat;lon;timestamp;P1;durP1;ratioP1;P2;durP2;ratioP2
62796;SDS011;48839;48.546;-4.178;2023-08-08T00:02:15;7.72;;;3.72;;
62796;SDS011;48839;48.546;-4.178;2023-08-08T00:04:41;6.80;;;3.42;;
62796;SDS011;48839;48.546;-4.178;2023-08-08T00:07:07;4.13;;;3.17;;
62796;SDS011;48839;48.546;-4.178;2023-08-08T00:09:33;7.03;;;3.08;;
62796;SDS011;48839;48.546;-4.178;2023-08-08T00:11:59;9.05;;;3.45;;
62796;SDS011;48839;48.546;-4.178;2023-08-08T00:14:25;4.07;;;2.58;;
62796;SDS011;48839;48.546;-4.178;2023-08-08T00:16:51;6.28;;;3.38;;
62796;SDS011;48839;48.546;-4.178;2023-08-08T00:19:17;4.90;;;3.03;;
62796;SDS011;48839;48.546;-4.178;2023-08-08T00:21:43;5.93;;;2.75;;
62796;SDS011;48839;48.546;-4.178;2023-08-08T00:24:09;3.25;;;2.55;;
62796;SDS011;48839;48.546;-4.178;2023-08-08T00:26:35;5.60;;;2.95;;
62796;SDS011;48839;48.546;-4.178;2023-08-08T00:29:01;6.03;;;3.15;;
62796;SDS011;48839;48.546;-4.178;2023-08-08T00:31:27;3.67;;;2.75;;
62796;SDS011;48839;48.546;-4.178;2023-08-08T00:33:53;4.20;;;2.67;;
62796;SDS011;48839;48.546;-4.178;2023-08-08T00:36:19;4.18;;;2.63;;
62796;SDS011;48839;48.546;-4.178;2023-08-08T00:38:45;5.78;;;2.72;;
62796;SDS011;48839;48.546;-4.178;2023-08-08T00:41:11;4.30;;;3.20;;
62796;SDS011;48839;48.546;-4.178;2023-08-08T00:43:37;3.70;;;2.70;;
62796;SDS011;48839;48.546;-4.178;2023-08-08T00:46:03;6.80;;;3.00;;
62796;SDS011;48839;48.546;-4.178;2023-08-08T00:48:30;4.53;;;2.92;;
62796;SDS011;48839;48.546;-4.178;2023-08-08T00:50:56;4.88;;;3.20;;
62796;SDS011;48839;48.546;-4.178;2023-08-08T00:53:22;3.92;;;2.70;;
62796;SDS011;48839;48.546;-4.178;2023-08-08T00:55:51;5.68;;;3.08;;
62796;SDS011;48839;48.546;-4.178;2023-08-08T00:58:17;7.28;;;2.95;;
62796;SDS011;48839;48.546;-4.178;2023-08-08T01:00:43;6.05;;;3.05;;
62796;SDS011;48839;48.546;-4.178;2023-08-08T01:03:09;6.80;;;3.30;;
62796;SDS011;48839;48.546;-4.178;2023-08-08T01:05:36;6.53;;;2.85;;
62796;SDS011;48839;48.546;-4.178;2023-08-08T01:08:04;4.70;;;2.75;;
62796;SDS011;48839;48.546;-4.178;2023-08-08T01:10:34;4.15;;;2.97;;
62796;SDS011;48839;48.546;-4.178;2023-08-08T01:13:04;3.28;;;2.38;;
62796;SDS011;48839;48.546;-4.178;2023-08-08T01:15:31;4.78;;;2.70;;
62796;SDS011;48839;48.546;-4.178;2023-08-08T01:18:04;4.32;;;2.90;;
62796;SDS011;48839;48.546;-4.178;2023-08-08T01:20:31;4.65;;;2.67;;
62796;SDS011;48839;48.546;-4.178;2023-08-08T01:25:37;4.28;;;2.70;;
62796;SDS011;48839;48.546;-4.178;2023-08-08T01:28:04;5.43;;;2.67;;
62796;SDS011;48839;48.546;-4.178;2023-08-08T01:30:30;5.03;;;2.80;;
62796;SDS011;48839;48.546;-4.178;2023-08-08T01:32:56;6.03;;;2.90;;
62796;SDS011;48839;48.546;-4.178;2023-08-08T01:35:22;4.00;;;2.45;;
62796;SDS011;48839;48.546;-4.178;2023-08-08T01:37:52;2.95;;;2.40;;
62796;SDS011;48839;48.546;-4.178;2023-08-08T01:40:20;4.50;;;2.42;;
62796;SDS011;48839;48.546;-4.178;2023-08-08T01:42:46;4.25;;;2.88;;
62796;SDS011;48839;48.546;-4.178;2023-08-08T01:45:13;6.93;;;3.00;;
62796;SDS011;48839;48.546;-4.178;2023-08-08T01:47:39;4.70;;;2.60;;
62796;SDS011;48839;48.546;-4.178;2023-08-08T01:50:06;3.88;;;2.67;;
62796;SDS011;48839;48.546;-4.178;2023-08-08T01:52:33;4.40;;;2.58;;
62796;SDS011;48839;48.546;-4.178;2023-08-08T01:55:00;4.18;;;2.75;;
62796;SDS011;48839;48.546;-4.178;2023-08-08T01:57:26;3.53;;;2.60;;
62796;SDS011;48839;48.546;-4.178;2023-08-08T01:59:52;4.65;;;2.70;;
62796;SDS011;48839;48.546;-4.178;2023-08-08T02:02:18;5.47;;;2.60;;
62796;SDS011;48839;48.546;-4.178;2023-08-08T02:04:44;6.10;;;2.95;;
62796;SDS011;48839;48.546;-4.178;2023-08-08T02:07:10;5.10;;;2.83;;
62796;SDS011;48839;48.546;-4.178;2023-08-08T02:09:36;5.10;;;2.92;;
62796;SDS011;48839;48.546;-4.178;2023-08-08T02:12:02;7.30;;;3.10;;
62796;SDS011;48839;48.546;-4.178;2023-08-08T02:14:28;5.43;;;2.60;;
62796;SDS011;48839;48.546;-4.178;2023-08-08T02:16:54;3.22;;;2.30;;
62796;SDS011;48839;48.546;-4.178;2023-08-08T02:19:20;4.95;;;2.80;;
62796;SDS011;48839;48.546;-4.178;2023-08-08T02:21:46;3.33;;;2.35;;
62796;SDS011;48839;48.546;-4.178;2023-08-08T02:24:12;5.00;;;2.78;;
62796;SDS011;48839;48.546;-4.178;2023-08-08T02:26:38;5.18;;;2.97;;
62796;SDS011;48839;48.546;-4.178;2023-08-08T02:29:04;3.97;;;2.47;;
62796;SDS011;48839;48.546;-4.178;2023-08-08T02:31:30;6.03;;;2.58;;
62796;SDS011;48839;48.546;-4.178;2023-08-08T02:33:56;6.25;;;3.53;;
62796;SDS011;48839;48.546;-4.178;2023-08-08T02:36:22;4.90;;;2.95;;
62796;SDS011;48839;48.546;-4.178;2023-08-08T02:38:48;5.65;;;2.80;;
62796;SDS011;48839;48.546;-4.178;2023-08-08T02:41:18;5.05;;;2.85;;
62796;SDS011;48839;48.546;-4.178;2023-08-08T02:43:44;5.90;;;3.10;;
62796;SDS011;48839;48.546;-4.178;2023-08-08T02:46:10;4.47;;;2.90;;
62796;SDS011;48839;48.546;-4.178;2023-08-08T02:48:36;6.28;;;2.75;;
62796;SDS011;48839;48.546;-4.178;2023-08-08T02:51:02;7.03;;;3.05;;
62796;SDS011;48839;48.546;-4.178;2023-08-08T02:53:28;9.63;;;3.10;;
62796;SDS011;48839;48.546;-4.178;2023-08-08T02:55:54;7.47;;;3.03;;
62796;SDS011;48839;48.546;-4.178;2023-08-08T02:58:20;5.90;;;3.17;;
62796;SDS011;48839;48.546;-4.178;2023-08-08T03:00:46;5.18;;;2.78;;
62796;SDS011;48839;48.546;-4.178;2023-08-08T03:03:12;7.03;;;2.80;;
62796;SDS011;48839;48.546;-4.178;2023-08-08T03:05:39;6.70;;;2.60;;
62796;SDS011;48839;48.546;-4.178;2023-08-08T03:08:05;4.53;;;3.00;;
62796;SDS011;48839;48.546;-4.178;2023-08-08T03:10:31;6.90;;;3.40;;
62796;SDS011;48839;48.546;-4.178;2023-08-08T03:12:57;5.68;;;3.33;;
62796;SDS011;48839;48.546;-4.178;2023-08-08T03:15:23;6.68;;;3.08;;
62796;SDS011;48839;48.546;-4.178;2023-08-08T03:17:49;5.03;;;2.65;;
62796;SDS011;48839;48.546;-4.178;2023-08-08T03:20:15;4.15;;;2.88;;
62796;SDS011;48839;48.546;-4.178;2023-08-08T03:22:41;3.53;;;2.60;;
62796;SDS011;48839;48.546;-4.178;2023-08-08T03:25:07;5.03;;;2.53;;
62796;SDS011;48839;48.546;-4.178;2023-08-08T03:27:33;8.30;;;3.03;;
62796;SDS011;48839;48.546;-4.178;2023-08-08T03:29:59;8.45;;;2.67;;
62796;SDS011;48839;48.546;-4.178;2023-08-08T03:32:25;4.75;;;2.88;;
62796;SDS011;48839;48.546;-4.178;2023-08-08T03:34:51;8.07;;;2.58;;
62796;SDS011;48839;48.546;-4.178;2023-08-08T03:37:17;4.97;;;2.70;;
62796;SDS011;48839;48.546;-4.178;2023-08-08T03:39:43;7.05;;;2.47;;
62796;SDS011;48839;48.546;-4.178;2023-08-08T03:42:09;4.55;;;2.53;;
62796;SDS011;48839;48.546;-4.178;2023-08-08T03:44:35;7.38;;;2.90;;
62796;SDS011;48839;48.546;-4.178;2023-08-08T03:47:01;8.18;;;2.92;;
62796;SDS011;48839;48.546;-4.178;2023-08-08T03:49:27;7.40;;;3.33;;
62796;SDS011;48839;48.546;-4.178;2023-08-08T03:51:53;9.50;;;3.28;;
62796;SDS011;48839;48.546;-4.178;2023-08-08T03:54:19;10.00;;;3.40;;
62796;SDS011;48839;48.546;-4.178;2023-08-08T03:56:45;8.60;;;3.53;;
62796;SDS011;48839;48.546;-4.178;2023-08-08T03:59:11;8.95;;;3.45;;
62796;SDS011;48839;48.546;-4.178;2023-08-08T04:01:37;6.18;;;3.25;;
62796;SDS011;48839;48.546;-4.178;2023-08-08T04:04:04;5.82;;;3.42;;
62796;SDS011;48839;48.546;-4.178;2023-08-08T04:06:30;6.90;;;3.30;;
62796;SDS011;48839;48.546;-4.178;2023-08-08T04:08:56;8.50;;;2.85;;
62796;SDS011;48839;48.546;-4.178;2023-08-08T04:11:22;13.13;;;3.10;;
62796;SDS011;48839;48.546;-4.178;2023-08-08T04:13:48;10.73;;;3.45;;
62796;SDS011;48839;48.546;-4.178;2023-08-08T04:16:14;8.82;;;3.42;;
62796;SDS011;48839;48.546;-4.178;2023-08-08T04:18:40;7.20;;;3.20;;
62796;SDS011;48839;48.546;-4.178;2023-08-08T04:21:06;6.10;;;3.25;;
62796;SDS011;48839;48.546;-4.178;2023-08-08T04:23:32;5.72;;;2.97;;
62796;SDS011;48839;48.546;-4.178;2023-08-08T04:25:58;7.15;;;2.75;;
62796;SDS011;48839;48.546;-4.178;2023-08-08T04:28:24;5.20;;;3.20;;
62796;SDS011;48839;48.546;-4.178;2023-08-08T04:30:50;5.78;;;3.13;;
62796;SDS011;48839;48.546;-4.178;2023-08-08T04:33:16;7.15;;;2.95;;
62796;SDS011;48839;48.546;-4.178;2023-08-08T04:35:42;5.10;;;2.65;;
62796;SDS011;48839;48.546;-4.178;2023-08-08T04:38:08;4.18;;;3.10;;
62796;SDS011;48839;48.546;-4.178;2023-08-08T04:40:34;4.07;;;2.38;;
62796;SDS011;48839;48.546;-4.178;2023-08-08T04:43:00;6.75;;;2.85;;
62796;SDS011;48839;48.546;-4.178;2023-08-08T04:45:26;4.97;;;2.85;;
62796;SDS011;48839;48.546;-4.178;2023-08-08T04:47:54;6.30;;;3.35;;
62796;SDS011;48839;48.546;-4.178;2023-08-08T04:50:20;9.38;;;3.53;;
62796;SDS011;48839;48.546;-4.178;2023-08-08T04:52:46;4.20;;;2.67;;
62796;SDS011;48839;48.546;-4.178;2023-08-08T04:55:12;7.47;;;3.20;;
62796;SDS011;48839;48.546;-4.178;2023-08-08T04:57:38;4.65;;;2.72;;
62796;SDS011;48839;48.546;-4.178;2023-08-08T05:00:04;4.30;;;2.83;;
62796;SDS011;48839;48.546;-4.178;2023-08-08T05:02:33;9.07;;;3.25;;
62796;SDS011;48839;48.546;-4.178;2023-08-08T05:04:59;3.05;;;2.38;;
62796;SDS011;48839;48.546;-4.178;2023-08-08T05:07:25;6.28;;;3.20;;
62796;SDS011;48839;48.546;-4.178;2023-08-08T05:09:51;6.57;;;3.00;;
62796;SDS011;48839;48.546;-4.178;2023-08-08T05:12:17;6.82;;;3.15;;
62796;SDS011;48839;48.546;-4.178;2023-08-08T05:14:43;5.15;;;3.30;;
62796;SDS011;48839;48.546;-4.178;2023-08-08T05:17:09;4.60;;;3.03;;
62796;SDS011;48839;48.546;-4.178;2023-08-08T05:19:35;5.93;;;3.15;;
62796;SDS011;48839;48.546;-4.178;2023-08-08T05:22:01;4.95;;;2.80;;
62796;SDS011;48839;48.546;-4.178;2023-08-08T05:24:27;8.73;;;2.85;;
62796;SDS011;48839;48.546;-4.178;2023-08-08T05:26:53;9.00;;;3.25;;
62796;SDS011;48839;48.546;-4.178;2023-08-08T05:29:19;5.68;;;3.65;;
62796;SDS011;48839;48.546;-4.178;2023-08-08T05:31:46;5.10;;;3.10;;
62796;SDS011;48839;48.546;-4.178;2023-08-08T05:34:15;5.72;;;2.90;;
62796;SDS011;48839;48.546;-4.178;2023-08-08T05:36:41;5.35;;;3.08;;
62796;SDS011;48839;48.546;-4.178;2023-08-08T05:39:07;6.35;;;3.42;;
62796;SDS011;48839;48.546;-4.178;2023-08-08T05:41:34;7.22;;;3.47;;
62796;SDS011;48839;48.546;-4.178;2023-08-08T05:44:00;6.20;;;3.58;;
62796;SDS011;48839;48.546;-4.178;2023-08-08T05:46:26;6.90;;;3.13;;
62796;SDS011;48839;48.546;-4.178;2023-08-08T05:48:52;7.25;;;3.58;;
62796;SDS011;48839;48.546;-4.178;2023-08-08T05:51:18;5.47;;;3.42;;
62796;SDS011;48839;48.546;-4.178;2023-08-08T05:53:44;7.20;;;3.63;;
62796;SDS011;48839;48.546;-4.178;2023-08-08T05:56:11;7.40;;;3.13;;
62796;SDS011;48839;48.546;-4.178;2023-08-08T05:58:37;6.85;;;3.35;;
62796;SDS011;48839;48.546;-4.178;2023-08-08T06:01:03;9.43;;;3.85;;
62796;SDS011;48839;48.546;-4.178;2023-08-08T06:03:34;8.18;;;3.72;;
62796;SDS011;48839;48.546;-4.178;2023-08-08T06:06:02;8.45;;;3.75;;
62796;SDS011;48839;48.546;-4.178;2023-08-08T06:08:28;8.27;;;3.63;;
62796;SDS011;48839;48.546;-4.178;2023-08-08T06:10:54;6.93;;;4.15;;
62796;SDS011;48839;48.546;-4.178;2023-08-08T06:13:20;8.70;;;3.72;;
62796;SDS011;48839;48.546;-4.178;2023-08-08T06:15:46;9.77;;;4.05;;
62796;SDS011;48839;48.546;-4.178;2023-08-08T06:18:12;13.70;;;4.25;;
62796;SDS011;48839;48.546;-4.178;2023-08-08T06:20:38;8.50;;;3.88;;
62796;SDS011;48839;48.546;-4.178;2023-08-08T06:23:04;9.73;;;4.32;;
62796;SDS011;48839;48.546;-4.178;2023-08-08T06:25:30;6.90;;;4.30;;
62796;SDS011;48839;48.546;-4.178;2023-08-08T06:27:56;9.35;;;5.13;;
62796;SDS011;48839;48.546;-4.178;2023-08-08T06:30:22;11.27;;;4.72;;
62796;SDS011;48839;48.546;-4.178;2023-08-08T06:32:48;13.25;;;6.00;;
62796;SDS011;48839;48.546;-4.178;2023-08-08T06:35:14;7.38;;;4.00;;
62796;SDS011;48839;48.546;-4.178;2023-08-08T06:37:41;7.75;;;3.17;;
62796;SDS011;48839;48.546;-4.178;2023-08-08T06:40:09;8.23;;;4.40;;
62796;SDS011;48839;48.546;-4.178;2023-08-08T06:42:35;4.50;;;3.10;;
62796;SDS011;48839;48.546;-4.178;2023-08-08T06:45:02;7.30;;;4.55;;
62796;SDS011;48839;48.546;-4.178;2023-08-08T06:47:28;7.57;;;3.85;;
62796;SDS011;48839;48.546;-4.178;2023-08-08T06:49:54;6.63;;;3.70;;
62796;SDS011;48839;48.546;-4.178;2023-08-08T06:52:21;6.88;;;4.00;;
62796;SDS011;48839;48.546;-4.178;2023-08-08T06:54:47;7.90;;;4.25;;
62796;SDS011;48839;48.546;-4.178;2023-08-08T06:57:13;6.05;;;3.97;;
62796;SDS011;48839;48.546;-4.178;2023-08-08T06:59:39;8.18;;;4.50;;
62796;SDS011;48839;48.546;-4.178;2023-08-08T07:02:05;8.85;;;3.92;;
62796;SDS011;48839;48.546;-4.178;2023-08-08T07:04:31;6.40;;;3.97;;
62796;SDS011;48839;48.546;-4.178;2023-08-08T07:06:57;10.45;;;4.15;;
62796;SDS011;48839;48.546;-4.178;2023-08-08T07:09:23;11.75;;;4.75;;
62796;SDS011;48839;48.546;-4.178;2023-08-08T07:11:49;9.07;;;5.25;;
62796;SDS011;48839;48.546;-4.178;2023-08-08T07:14:16;10.10;;;4.82;;
62796;SDS011;48839;48.546;-4.178;2023-08-08T07:16:42;10.32;;;5.50;;
62796;SDS011;48839;48.546;-4.178;2023-08-08T07:19:08;9.00;;;5.03;;
62796;SDS011;48839;48.546;-4.178;2023-08-08T07:21:34;12.60;;;5.00;;
62796;SDS011;48839;48.546;-4.178;2023-08-08T07:24:00;7.00;;;4.68;;
62796;SDS011;48839;48.546;-4.178;2023-08-08T07:26:28;8.80;;;3.97;;
62796;SDS011;48839;48.546;-4.178;2023-08-08T07:28:54;8.13;;;4.03;;
62796;SDS011;48839;48.546;-4.178;2023-08-08T07:31:19;8.15;;;3.63;;
62796;SDS011;48839;48.546;-4.178;2023-08-08T07:33:45;6.13;;;3.08;;
62796;SDS011;48839;48.546;-4.178;2023-08-08T07:36:11;6.22;;;3.05;;
62796;SDS011;48839;48.546;-4.178;2023-08-08T07:38:37;6.22;;;3.15;;
62796;SDS011;48839;48.546;-4.178;2023-08-08T07:41:03;6.07;;;3.00;;
62796;SDS011;48839;48.546;-4.178;2023-08-08T07:43:30;3.67;;;2.70;;
62796;SDS011;48839;48.546;-4.178;2023-08-08T07:45:56;4.50;;;2.30;;
62796;SDS011;48839;48.546;-4.178;2023-08-08T07:48:22;4.32;;;2.17;;
62796;SDS011;48839;48.546;-4.178;2023-08-08T07:50:48;3.53;;;1.88;;
62796;SDS011;48839;48.546;-4.178;2023-08-08T07:53:14;4.78;;;2.03;;
62796;SDS011;48839;48.546;-4.178;2023-08-08T07:55:40;3.85;;;2.20;;
62796;SDS011;48839;48.546;-4.178;2023-08-08T07:58:06;6.95;;;3.25;;
62796;SDS011;48839;48.546;-4.178;2023-08-08T08:00:32;4.18;;;2.63;;
62796;SDS011;48839;48.546;-4.178;2023-08-08T08:02:58;4.60;;;2.25;;
62796;SDS011;48839;48.546;-4.178;2023-08-08T08:05:24;1.58;;;1.45;;
62796;SDS011;48839;48.546;-4.178;2023-08-08T08:07:50;6.82;;;1.95;;
62796;SDS011;48839;48.546;-4.178;2023-08-08T08:10:16;7.43;;;1.70;;
62796;SDS011;48839;48.546;-4.178;2023-08-08T08:12:42;2.50;;;1.70;;
62796;SDS011;48839;48.546;-4.178;2023-08-08T08:15:08;3.65;;;1.48;;
62796;SDS011;48839;48.546;-4.178;2023-08-08T08:17:34;4.68;;;1.38;;
62796;SDS011;48839;48.546;-4.178;2023-08-08T08:20:00;7.13;;;1.67;;
62796;SDS011;48839;48.546;-4.178;2023-08-08T08:22:33;4.72;;;1.52;;
62796;SDS011;48839;48.546;-4.178;2023-08-08T08:24:59;3.75;;;1.50;;
62796;SDS011;48839;48.546;-4.178;2023-08-08T08:27:26;3.40;;;1.60;;
62796;SDS011;48839;48.546;-4.178;2023-08-08T08:29:52;3.03;;;1.60;;
62796;SDS011;48839;48.546;-4.178;2023-08-08T08:32:18;3.35;;;1.70;;
62796;SDS011;48839;48.546;-4.178;2023-08-08T08:34:44;2.92;;;1.38;;
62796;SDS011;48839;48.546;-4.178;2023-08-08T08:37:10;4.35;;;1.63;;
62796;SDS011;48839;48.546;-4.178;2023-08-08T08:39:36;3.85;;;1.80;;
62796;SDS011;48839;48.546;-4.178;2023-08-08T08:42:02;3.70;;;1.65;;
62796;SDS011;48839;48.546;-4.178;2023-08-08T08:44:30;3.38;;;1.52;;
62796;SDS011;48839;48.546;-4.178;2023-08-08T08:47:01;3.95;;;1.27;;
62796;SDS011;48839;48.546;-4.178;2023-08-08T08:49:28;2.10;;;1.17;;
62796;SDS011;48839;48.546;-4.178;2023-08-08T08:51:55;2.08;;;1.20;;
62796;SDS011;48839;48.546;-4.178;2023-08-08T08:54:22;3.60;;;1.35;;
62796;SDS011;48839;48.546;-4.178;2023-08-08T08:56:48;4.90;;;1.48;;
62796;SDS011;48839;48.546;-4.178;2023-08-08T08:59:15;2.22;;;1.10;;
62796;SDS011;48839;48.546;-4.178;2023-08-08T09:01:41;4.55;;;1.30;;
62796;SDS011;48839;48.546;-4.178;2023-08-08T09:04:07;2.58;;;0.98;;
62796;SDS011;48839;48.546;-4.178;2023-08-08T09:06:33;2.65;;;1.30;;
62796;SDS011;48839;48.546;-4.178;2023-08-08T09:09:00;4.85;;;1.30;;
62796;SDS011;48839;48.546;-4.178;2023-08-08T09:11:26;2.13;;;1.15;;
62796;SDS011;48839;48.546;-4.178;2023-08-08T09:13:52;3.58;;;1.20;;
62796;SDS011;48839;48.546;-4.178;2023-08-08T09:16:18;2.10;;;1.60;;
62796;SDS011;48839;48.546;-4.178;2023-08-08T09:18:44;6.25;;;1.40;;
62796;SDS011;48839;48.546;-4.178;2023-08-08T09:21:10;1.92;;;1.20;;
62796;SDS011;48839;48.546;-4.178;2023-08-08T09:23:36;7.45;;;1.42;;
62796;SDS011;48839;48.546;-4.178;2023-08-08T09:26:04;3.10;;;1.63;;
62796;SDS011;48839;48.546;-4.178;2023-08-08T09:28:30;3.97;;;1.15;;
62796;SDS011;48839;48.546;-4.178;2023-08-08T09:30:56;3.83;;;1.35;;
62796;SDS011;48839;48.546;-4.178;2023-08-08T09:33:23;4.00;;;1.55;;
62796;SDS011;48839;48.546;-4.178;2023-08-08T09:35:49;3.10;;;1.55;;
62796;SDS011;48839;48.546;-4.178;2023-08-08T09:38:15;5.55;;;1.30;;
62796;SDS011;48839;48.546;-4.178;2023-08-08T09:40:41;3.72;;;1.50;;
62796;SDS011;48839;48.546;-4.178;2023-08-08T09:43:08;4.75;;;1.50;;
62796;SDS011;48839;48.546;-4.178;2023-08-08T09:45:40;2.53;;;1.75;;
62796;SDS011;48839;48.546;-4.178;2023-08-08T09:48:09;4.97;;;1.60;;
62796;SDS011;48839;48.546;-4.178;2023-08-08T09:50:36;4.53;;;2.00;;
62796;SDS011;48839;48.546;-4.178;2023-08-08T09:53:02;3.78;;;1.35;;
62796;SDS011;48839;48.546;-4.178;2023-08-08T09:55:28;3.42;;;1.33;;
62796;SDS011;48839;48.546;-4.178;2023-08-08T09:57:55;2.38;;;1.50;;
62796;SDS011;48839;48.546;-4.178;2023-08-08T10:00:22;4.60;;;1.70;;
62796;SDS011;48839;48.546;-4.178;2023-08-08T10:02:50;3.63;;;1.50;;
62796;SDS011;48839;48.546;-4.178;2023-08-08T10:05:16;2.60;;;1.50;;
62796;SDS011;48839;48.546;-4.178;2023-08-08T10:07:42;3.72;;;1.67;;
62796;SDS011;48839;48.546;-4.178;2023-08-08T10:10:08;5.43;;;1.90;;
62796;SDS011;48839;48.546;-4.178;2023-08-08T10:12:38;3.25;;;1.88;;
62796;SDS011;48839;48.546;-4.178;2023-08-08T10:15:08;1.63;;;1.35;;
62796;SDS011;48839;48.546;-4.178;2023-08-08T10:17:36;6.05;;;1.77;;
62796;SDS011;48839;48.546;-4.178;2023-08-08T10:20:02;2.80;;;1.67;;
62796;SDS011;48839;48.546;-4.178;2023-08-08T10:22:36;4.57;;;1.75;;
62796;SDS011;48839;48.546;-4.178;2023-08-08T10:25:03;2.67;;;1.70;;
62796;SDS011;48839;48.546;-4.178;2023-08-08T10:27:33;4.10;;;1.92;;
62796;SDS011;48839;48.546;-4.178;2023-08-08T10:30:09;4.38;;;1.67;;
62796;SDS011;48839;48.546;-4.178;2023-08-08T10:32:43;1.92;;;1.23;;
62796;SDS011;48839;48.546;-4.178;2023-08-08T10:35:11;3.97;;;1.70;;
62796;SDS011;48839;48.546;-4.178;2023-08-08T10:37:38;4.03;;;1.70;;
62796;SDS011;48839;48.546;-4.178;2023-08-08T10:40:04;3.22;;;1.52;;
62796;SDS011;48839;48.546;-4.178;2023-08-08T10:42:32;7.10;;;1.40;;
62796;SDS011;48839;48.546;-4.178;2023-08-08T10:44:58;6.70;;;1.85;;
62796;SDS011;48839;48.546;-4.178;2023-08-08T10:47:25;1.98;;;1.50;;
62796;SDS011;48839;48.546;-4.178;2023-08-08T10:55:19;4.50;;;1.73;;
62796;SDS011;48839;48.546;-4.178;2023-08-08T10:57:52;2.70;;;1.50;;
62796;SDS011;48839;48.546;-4.178;2023-08-08T11:02:44;5.10;;;1.48;;
62796;SDS011;48839;48.546;-4.178;2023-08-08T11:05:10;5.18;;;1.67;;
62796;SDS011;48839;48.546;-4.178;2023-08-08T11:07:37;4.63;;;1.55;;
62796;SDS011;48839;48.546;-4.178;2023-08-08T11:10:04;5.10;;;1.40;;
62796;SDS011;48839;48.546;-4.178;2023-08-08T11:12:30;5.82;;;1.70;;
62796;SDS011;48839;48.546;-4.178;2023-08-08T11:14:56;2.20;;;1.40;;
62796;SDS011;48839;48.546;-4.178;2023-08-08T11:17:22;10.88;;;2.08;;
62796;SDS011;48839;48.546;-4.178;2023-08-08T11:19:48;4.97;;;1.88;;
62796;SDS011;48839;48.546;-4.178;2023-08-08T11:22:16;4.55;;;1.50;;
62796;SDS011;48839;48.546;-4.178;2023-08-08T11:24:42;4.30;;;1.80;;
62796;SDS011;48839;48.546;-4.178;2023-08-08T11:27:08;5.03;;;1.35;;
62796;SDS011;48839;48.546;-4.178;2023-08-08T11:29:34;8.88;;;1.70;;
62796;SDS011;48839;48.546;-4.178;2023-08-08T11:32:00;5.00;;;2.63;;
62796;SDS011;48839;48.546;-4.178;2023-08-08T11:34:29;5.97;;;1.60;;
62796;SDS011;48839;48.546;-4.178;2023-08-08T11:36:55;3.55;;;1.30;;
62796;SDS011;48839;48.546;-4.178;2023-08-08T11:39:23;4.00;;;1.70;;
62796;SDS011;48839;48.546;-4.178;2023-08-08T11:41:49;4.68;;;1.65;;
62796;SDS011;48839;48.546;-4.178;2023-08-08T11:44:15;2.30;;;1.83;;
62796;SDS011;48839;48.546;-4.178;2023-08-08T11:46:45;7.30;;;2.05;;
62796;SDS011;48839;48.546;-4.178;2023-08-08T11:49:14;3.45;;;1.40;;
62796;SDS011;48839;48.546;-4.178;2023-08-08T11:51:42;5.30;;;1.80;;
62796;SDS011;48839;48.546;-4.178;2023-08-08T11:54:08;6.32;;;1.90;;
62796;SDS011;48839;48.546;-4.178;2023-08-08T11:56:35;4.40;;;1.90;;
62796;SDS011;48839;48.546;-4.178;2023-08-08T11:59:01;5.10;;;1.85;;
62796;SDS011;48839;48.546;-4.178;2023-08-08T12:01:27;6.80;;;1.88;;
62796;SDS011;48839;48.546;-4.178;2023-08-08T12:03:54;6.32;;;2.22;;
62796;SDS011;48839;48.546;-4.178;2023-08-08T12:06:20;7.00;;;1.33;;
62796;SDS011;48839;48.546;-4.178;2023-08-08T12:08:47;5.03;;;3.05;;
62796;SDS011;48839;48.546;-4.178;2023-08-08T12:11:13;4.05;;;2.25;;
62796;SDS011;48839;48.546;-4.178;2023-08-08T12:13:43;4.97;;;1.67;;
62796;SDS011;48839;48.546;-4.178;2023-08-08T12:16:10;2.35;;;1.70;;
62796;SDS011;48839;48.546;-4.178;2023-08-08T12:18:36;2.58;;;1.30;;
62796;SDS011;48839;48.546;-4.178;2023-08-08T12:21:06;1.75;;;1.35;;
62796;SDS011;48839;48.546;-4.178;2023-08-08T12:23:33;2.38;;;1.52;;
62796;SDS011;48839;48.546;-4.178;2023-08-08T12:25:59;3.63;;;1.30;;
62796;SDS011;48839;48.546;-4.178;2023-08-08T12:28:25;2.45;;;1.52;;
62796;SDS011;48839;48.546;-4.178;2023-08-08T12:30:52;1.92;;;1.13;;
62796;SDS011;48839;48.546;-4.178;2023-08-08T12:33:18;1.35;;;1.10;;
62796;SDS011;48839;48.546;-4.178;2023-08-08T12:35:44;1.33;;;1.08;;
62796;SDS011;48839;48.546;-4.178;2023-08-08T12:38:10;3.88;;;1.20;;
62796;SDS011;48839;48.546;-4.178;2023-08-08T12:40:36;4.85;;;1.38;;
62796;SDS011;48839;48.546;-4.178;2023-08-08T12:43:02;2.70;;;1.10;;
62796;SDS011;48839;48.546;-4.178;2023-08-08T12:45:28;1.77;;;1.08;;
62796;SDS011;48839;48.546;-4.178;2023-08-08T12:47:54;3.60;;;1.20;;
62796;SDS011;48839;48.546;-4.178;2023-08-08T12:50:20;1.45;;;1.10;;
62796;SDS011;48839;48.546;-4.178;2023-08-08T12:52:46;3.13;;;1.13;;
62796;SDS011;48839;48.546;-4.178;2023-08-08T12:55:12;2.35;;;1.08;;
62796;SDS011;48839;48.546;-4.178;2023-08-08T12:57:41;1.58;;;1.10;;
62796;SDS011;48839;48.546;-4.178;2023-08-08T13:00:07;6.38;;;1.60;;
62796;SDS011;48839;48.546;-4.178;2023-08-08T13:02:34;3.45;;;1.13;;
62796;SDS011;48839;48.546;-4.178;2023-08-08T13:05:00;0.93;;;0.80;;
62796;SDS011;48839;48.546;-4.178;2023-08-08T13:07:28;4.18;;;1.27;;
62796;SDS011;48839;48.546;-4.178;2023-08-08T13:09:54;3.75;;;1.17;;
62796;SDS011;48839;48.546;-4.178;2023-08-08T13:12:20;1.98;;;1.15;;
62796;SDS011;48839;48.546;-4.178;2023-08-08T13:14:46;1.92;;;1.20;;
62796;SDS011;48839;48.546;-4.178;2023-08-08T13:17:12;2.63;;;1.50;;
62796;SDS011;48839;48.546;-4.178;2023-08-08T13:19:39;5.28;;;1.45;;
62796;SDS011;48839;48.546;-4.178;2023-08-08T13:22:05;2.50;;;1.63;;
62796;SDS011;48839;48.546;-4.178;2023-08-08T13:24:31;2.83;;;1.42;;
62796;SDS011;48839;48.546;-4.178;2023-08-08T13:26:57;2.55;;;1.48;;
62796;SDS011;48839;48.546;-4.178;2023-08-08T13:29:23;5.55;;;1.60;;
62796;SDS011;48839;48.546;-4.178;2023-08-08T13:31:49;2.55;;;1.60;;
62796;SDS011;48839;48.546;-4.178;2023-08-08T13:34:15;3.80;;;1.83;;
62796;SDS011;48839;48.546;-4.178;2023-08-08T13:36:42;2.30;;;1.60;;
62796;SDS011;48839;48.546;-4.178;2023-08-08T13:39:08;2.17;;;1.63;;
62796;SDS011;48839;48.546;-4.178;2023-08-08T13:41:35;4.55;;;2.13;;
62796;SDS011;48839;48.546;-4.178;2023-08-08T13:44:01;4.95;;;2.15;;
62796;SDS011;48839;48.546;-4.178;2023-08-08T13:46:27;4.18;;;1.90;;
62796;SDS011;48839;48.546;-4.178;2023-08-08T13:48:53;3.13;;;1.80;;
62796;SDS011;48839;48.546;-4.178;2023-08-08T13:51:19;3.75;;;1.77;;
62796;SDS011;48839;48.546;-4.178;2023-08-08T13:53:45;2.53;;;1.83;;
62796;SDS011;48839;48.546;-4.178;2023-08-08T13:56:11;2.13;;;1.60;;
62796;SDS011;48839;48.546;-4.178;2023-08-08T13:58:37;2.45;;;1.70;;
62796;SDS011;48839;48.546;-4.178;2023-08-08T14:01:03;2.05;;;1.88;;
62796;SDS011;48839;48.546;-4.178;2023-08-08T14:03:29;3.53;;;1.85;;
62796;SDS011;48839;48.546;-4.178;2023-08-08T14:05:55;3.47;;;1.38;;
62796;SDS011;48839;48.546;-4.178;2023-08-08T14:08:22;3.63;;;1.80;;
62796;SDS011;48839;48.546;-4.178;2023-08-08T14:10:48;4.32;;;1.90;;
62796;SDS011;48839;48.546;-4.178;2023-08-08T14:13:14;5.38;;;2.13;;
62796;SDS011;48839;48.546;-4.178;2023-08-08T14:15:41;2.50;;;1.48;;
62796;SDS011;48839;48.546;-4.178;2023-08-08T14:18:07;5.57;;;2.03;;
62796;SDS011;48839;48.546;-4.178;2023-08-08T14:20:33;4.65;;;2.33;;
62796;SDS011;48839;48.546;-4.178;2023-08-08T14:22:59;5.97;;;2.67;;
62796;SDS011;48839;48.546;-4.178;2023-08-08T14:25:25;6.95;;;3.42;;
62796;SDS011;48839;48.546;-4.178;2023-08-08T14:27:51;8.05;;;2.70;;
62796;SDS011;48839;48.546;-4.178;2023-08-08T14:30:17;5.93;;;3.10;;
62796;SDS011;48839;48.546;-4.178;2023-08-08T14:32:43;5.57;;;2.60;;
62796;SDS011;48839;48.546;-4.178;2023-08-08T14:35:09;4.35;;;2.90;;
62796;SDS011;48839;48.546;-4.178;2023-08-08T14:37:37;4.90;;;2.85;;
62796;SDS011;48839;48.546;-4.178;2023-08-08T14:40:03;9.38;;;4.00;;